Grenola, KS (67346)

2:07 PM CST on March 06, 2015 (GMT -0600)
US166 K15 Junction | Change Station
CLOSE
Current Station
Personal Weather Station
Location: Dexter, KS
Elevation: 1270 ft
Nearby Weather Stations

Elev 1270 ft 37.11 °N, 96.71 °W | Updated 37 seconds ago

Clear
Clear
56.8 °F
Feels Like 56.8 °F
N
12.0
Wind Variable Wind from SSW
Gusts 13.0 mph

Today
High -- | Low -- °F
--% Chance of Precip.
Yesterday
High -- | Low -- °F
Precip. -- in
6:50 AM 6:24 PM
Full, 99% visible
Pressure 30.37 in
Visibility 10.0 miles
Clouds Clear
Dew Point 33 °F
Humidity 40%
Rainfall in
Snow Depth Not available.
UV 6 out of 12
Pollen 2.00 out of 12
Air Quality Not available.
Flu Activity Not available.
METAR KWLD 061954Z AUTO 22015KT 10SM CLR 14/M01 A3035 RMK AO2 SLP282 T01391011

More Conditions Fewer Conditions

Pressure 30.37 in
Visibility 10.0 miles
Clouds Clear
Dew Point 33 °F
Humidity 40%
Rainfall in
Snow Depth Not available.
UV 6 out of 12
Pollen 2.00 out of 12
Air Quality Not available.
Flu Activity Not available.
METAR KWLD 061954Z AUTO 22015KT 10SM CLR 14/M01 A3035 RMK AO2 SLP282 T01391011

More Conditions Fewer Conditions

10-Day Weather Forecast

Almanac

Astronomy

Mar. 06, 2015 Rise Set
Actual Time
Civil Twilight
Nautical Twilight
Astronomical Twilight
Moon
Length of Visible Light
Length of Day
Tomorrow will be .
, % of the Moon is Illuminated

Today's Extremes

State Highs State Lows

Community

WunderPhotos

Upload Photos

1,803,386 photos uploaded!

WunderBlogs® & News

Nearby

Air Quality

  Air Quality AQ Index Pollutant
Not available.

Snow Depth

Station Depth Elevation

Earthquake Activity

City Distance Mag. Time & Date
Minimum magnitude displayed is 2.5.

Coastal Water Temperatures

Place Temperature

Nearby Weather Stations